Time;durP1;ratioP1;P1;durP2;ratioP2;P2;SDS_P1;SDS_P2;PMS_P1;PMS_P2;Temp;Humidity;BMP_temperature;BMP_pressure;BME280_temperature;BME280_humidity;BME280_pressure;Samples;Min_cycle;Max_cycle;Signal;HPM_P1;HPM_P2
2022/09/29 00:00:23;;;;;;;30.48;2.20;;;9.40;99.90;;;;;;5049526;28;20076;-65
2022/09/29 00:02:49;;;;;;;71.32;3.20;;;9.90;99.90;;;;;;5048658;28;20049;-65
2022/09/29 00:05:14;;;;;;;67.18;2.38;;;9.60;99.90;;;;;;5051456;28;20044;-65
2022/09/29 00:07:40;;;;;;;53.00;2.42;;;10.30;99.90;;;;;;5050647;28;20123;-66
2022/09/29 00:10:06;;;;;;;72.70;2.92;;;9.60;99.90;;;;;;5037593;28;20407;-66
2022/09/29 00:12:31;;;;;;;84.07;2.90;;;10.00;99.90;;;;;;5030468;28;20056;-66
2022/09/29 00:14:57;;;;;;;143.85;4.57;;;10.20;99.90;;;;;;5043033;28;20045;-66
2022/09/29 00:17:22;;;;;;;67.63;3.15;;;10.50;99.90;;;;;;5038721;28;20037;-66
2022/09/29 00:19:48;;;;;;;20.90;1.98;;;10.60;99.90;;;;;;5051101;28;20032;-66
2022/09/29 00:22:13;;;;;;;14.85;1.77;;;10.50;99.90;;;;;;5051205;28;20044;-66
2022/09/29 00:24:39;;;;;;;463.80;10.02;;;10.60;99.90;;;;;;5044632;28;20037;-65
2022/09/29 00:27:04;;;;;;;346.67;7.38;;;9.70;99.90;;;;;;5049862;28;20040;-65
2022/09/29 00:29:30;;;;;;;127.15;4.07;;;10.50;99.90;;;;;;5048596;28;20076;-65
2022/09/29 00:31:55;;;;;;;81.95;2.95;;;10.10;99.90;;;;;;5031275;28;20083;-66
2022/09/29 00:34:21;;;;;;;196.35;8.70;;;9.70;99.90;;;;;;5042434;28;20051;-66
2022/09/29 00:36:46;;;;;;;49.75;2.50;;;10.50;99.90;;;;;;5051005;28;20044;-66
2022/09/29 00:39:12;;;;;;;142.82;3.80;;;10.60;99.90;;;;;;5049794;28;20120;-66
2022/09/29 00:41:40;;;;;;;134.05;4.35;;;9.60;99.90;;;;;;5048916;28;20083;-66
2022/09/29 00:44:44;;;;;;;155.23;5.63;;;10.10;99.90;;;;;;5048852;28;20041;-66
2022/09/29 00:47:15;;;;;;;79.28;3.30;;;9.50;99.90;;;;;;5031016;28;20033;-65
2022/09/29 00:50:22;;;;;;;22.15;2.22;;;10.00;99.90;;;;;;5031547;28;20037;-66
2022/09/29 00:52:55;;;;;;;5.68;1.80;;;9.70;99.90;;;;;;5031251;28;20407;-65
2022/09/29 00:56:04;;;;;;;11.15;1.92;;;10.30;99.90;;;;;;5041084;28;20500;-66
2022/09/29 00:58:32;;;;;;;58.30;3.47;;;9.40;99.90;;;;;;5042539;28;20525;-65
2022/09/29 01:00:58;;;;;;;120.15;4.72;;;9.80;99.90;;;;;;5039625;28;20045;-66
2022/09/29 01:03:32;;;;;;;157.00;5.55;;;9.50;99.90;;;;;;5042501;28;20033;-65
2022/09/29 01:06:02;;;;;;;186.70;6.35;;;10.00;99.90;;;;;;5030029;28;20091;-65
2022/09/29 01:08:39;;;;;;;104.32;4.55;;;9.30;99.90;;;;;;5031009;28;20052;-65
2022/09/29 01:11:05;;;;;;;212.18;6.63;;;9.80;99.90;;;;;;5047845;28;20057;-65
2022/09/29 01:13:32;;;;;;;325.05;8.77;;;10.20;99.90;;;;;;5048011;28;20053;-65
2022/09/29 01:15:58;;;;;;;231.38;10.07;;;9.30;99.90;;;;;;5050390;28;20039;-66
2022/09/29 01:18:24;;;;;;;260.75;8.02;;;9.40;99.90;;;;;;5040660;28;20034;-66
2022/09/29 01:21:06;;;;;;;280.98;9.18;;;9.20;99.90;;;;;;5049757;28;20029;-66
2022/09/29 01:24:07;;;;;;;269.40;8.95;;;9.90;99.90;;;;;;5045424;28;20513;-66
2022/09/29 01:27:04;;;;;;;379.23;10.80;;;10.10;99.90;;;;;;5053069;28;20048;-66
2022/09/29 01:29:35;;;;;;;338.75;9.77;;;9.60;99.90;;;;;;5051934;28;20095;-65
2022/09/29 01:32:13;;;;;;;429.42;9.93;;;9.10;99.90;;;;;;5049137;28;20053;-66
2022/09/29 01:35:07;;;;;;;411.73;9.75;;;9.80;99.90;;;;;;5033105;28;20410;-66
2022/09/29 01:37:43;;;;;;;325.95;8.00;;;9.30;99.90;;;;;;5034215;28;20041;-66
2022/09/29 01:40:43;;;;;;;254.10;10.18;;;9.10;99.90;;;;;;5046826;28;20041;-66
2022/09/29 01:43:19;;;;;;;151.68;5.53;;;10.10;99.90;;;;;;5051972;28;20048;-66
2022/09/29 01:46:10;;;;;;;410.92;10.77;;;10.10;99.90;;;;;;5053904;28;20060;-66
2022/09/29 01:48:41;;;;;;;351.95;10.70;;;9.30;99.90;;;;;;5044034;28;20053;-66
2022/09/29 01:51:14;;;;;;;444.35;13.45;;;9.80;99.90;;;;;;5033093;28;20495;-66
2022/09/29 01:53:47;;;;;;;513.20;13.57;;;9.40;99.90;;;;;;5032722;28;20041;-66
2022/09/29 01:56:23;;;;;;;503.75;11.57;;;9.20;99.90;;;;;;5052555;28;20400;-66
2022/09/29 01:58:54;;;;;;;;;;;10.00;99.90;;;;;;5047979;28;20040;-66
2022/09/29 02:01:23;;;;;;;310.95;9.52;;;10.00;99.90;;;;;;5037921;28;20382;-66
2022/09/29 02:04:10;;;;;;;242.10;7.45;;;9.20;99.90;;;;;;5052965;28;20069;-66
2022/09/29 02:06:47;;;;;;;321.20;12.45;;;9.90;99.90;;;;;;5051743;28;20502;-66
2022/09/29 02:09:21;;;;;;;280.83;8.75;;;9.60;99.90;;;;;;5032482;28;20581;-66
2022/09/29 02:11:51;;;;;;;315.63;9.38;;;9.10;99.90;;;;;;5033457;28;20061;-66
2022/09/29 02:14:23;;;;;;;242.60;10.68;;;9.30;99.90;;;;;;5033471;28;20045;-66
2022/09/29 02:17:04;;;;;;;313.02;9.38;;;9.50;99.90;;;;;;5045932;28;20045;-66
2022/09/29 02:19:35;;;;;;;309.65;9.27;;;9.00;99.90;;;;;;5040863;28;20490;-66
2022/09/29 02:22:01;;;;;;;431.33;12.70;;;9.00;99.90;;;;;;5032434;28;20037;-66
2022/09/29 02:24:27;;;;;;;429.95;9.80;;;8.90;99.90;;;;;;5033345;28;20120;-66
2022/09/29 02:26:54;;;;;;;332.35;11.68;;;9.00;99.90;;;;;;5033894;28;20073;-65
2022/09/29 02:29:20;;;;;;;99.10;4.95;;;9.70;99.90;;;;;;5051078;28;20051;-65
2022/09/29 02:31:46;;;;;;;397.85;13.48;;;9.70;99.90;;;;;;5050134;28;20040;-66
2022/09/29 02:34:16;;;;;;;619.42;21.15;;;9.80;99.90;;;;;;5052741;28;20041;-66
2022/09/29 02:37:03;;;;;;;355.20;10.32;;;9.40;99.90;;;;;;5045231;28;20036;-65
2022/09/29 02:39:34;;;;;;;510.23;15.65;;;9.70;99.90;;;;;;5052056;28;20053;-66
2022/09/29 02:42:17;;;;;;;62.97;4.40;;;8.60;99.90;;;;;;5053040;28;20048;-65
2022/09/29 02:44:54;;;;;;;115.18;5.70;;;9.00;99.90;;;;;;5052811;28;20124;-65
2022/09/29 02:47:38;;;;;;;5.78;3.38;;;8.80;99.90;;;;;;5033035;28;20038;-65
2022/09/29 02:50:29;;;;;;;5.05;3.08;;;9.00;99.90;;;;;;5048600;28;20503;-66
2022/09/29 02:53:28;;;;;;;9.32;2.88;;;9.90;99.90;;;;;;5052786;28;20392;-66
2022/09/29 02:56:07;;;;;;;96.55;5.68;;;9.10;99.90;;;;;;5052741;28;20047;-65
2022/09/29 02:58:50;;;;;;;148.23;6.45;;;9.00;99.90;;;;;;5049217;28;20131;-66
2022/09/29 03:01:16;;;;;;;8.70;3.00;;;8.90;99.90;;;;;;5038553;28;20373;-65
2022/09/29 03:03:42;;;;;;;13.80;3.15;;;9.40;99.90;;;;;;5040535;28;20048;-66
2022/09/29 03:06:09;;;;;;;4.93;3.65;;;9.90;99.90;;;;;;5034999;28;20033;-65
2022/09/29 03:08:36;;;;;;;4.70;3.55;;;9.20;99.90;;;;;;5033694;28;20045;-65
2022/09/29 03:11:01;;;;;;;4.50;3.50;;;9.60;99.90;;;;;;5052097;28;20140;-65
2022/09/29 03:13:27;;;;;;;3.45;3.15;;;9.80;99.90;;;;;;5051319;28;20128;-65
2022/09/29 03:15:52;;;;;;;5.13;3.70;;;9.60;99.90;;;;;;5050083;28;20051;-66
2022/09/29 03:18:18;;;;;;;3.75;3.25;;;10.00;99.90;;;;;;5050156;28;20133;-65
2022/09/29 03:20:44;;;;;;;4.82;3.80;;;10.20;99.90;;;;;;5047819;28;20128;-66
2022/09/29 03:23:09;;;;;;;5.63;4.10;;;9.50;99.90;;;;;;5052288;28;20044;-65
2022/09/29 03:25:35;;;;;;;158.90;7.43;;;9.30;99.90;;;;;;5050657;28;20037;-66
2022/09/29 03:28:00;;;;;;;72.43;5.95;;;9.90;99.90;;;;;;5052146;28;20045;-65
2022/09/29 03:30:26;;;;;;;58.28;5.28;;;9.90;99.90;;;;;;5049115;28;20037;-66
2022/09/29 03:32:52;;;;;;;119.03;7.13;;;9.30;99.90;;;;;;5043741;28;20068;-66
2022/09/29 03:35:18;;;;;;;49.58;5.20;;;9.90;99.90;;;;;;5030766;28;20049;-66
2022/09/29 03:37:44;;;;;;;339.58;12.35;;;9.30;99.90;;;;;;5042006;28;20384;-65
2022/09/29 03:40:10;;;;;;;612.83;20.83;;;10.20;99.90;;;;;;5051738;28;20049;-65
2022/09/29 03:42:35;;;;;;;275.10;11.80;;;9.70;99.90;;;;;;5050570;28;20029;-66
2022/09/29 03:45:01;;;;;;;721.75;28.25;;;10.30;99.90;;;;;;5050862;28;20129;-66
2022/09/29 03:47:26;;;;;;;515.13;15.25;;;10.30;99.90;;;;;;5042379;28;20056;-65
2022/09/29 03:49:52;;;;;;;507.25;14.77;;;9.30;99.90;;;;;;5045112;28;20493;-66
2022/09/29 03:52:17;;;;;;;102.07;7.15;;;10.20;99.90;;;;;;5050434;28;20037;-66
2022/09/29 03:54:43;;;;;;;298.23;11.07;;;9.80;99.90;;;;;;5051427;28;20041;-65
2022/09/29 03:57:09;;;;;;;618.83;19.00;;;10.20;99.90;;;;;;5049982;28;20040;-65
2022/09/29 03:59:34;;;;;;;533.80;17.77;;;9.30;99.90;;;;;;5050218;28;20029;-66
2022/09/29 04:02:00;;;;;;;508.73;15.82;;;9.30;99.90;;;;;;5035618;28;20037;-66
2022/09/29 04:04:25;;;;;;;110.45;5.55;;;9.10;99.90;;;;;;5049333;28;20480;-66
2022/09/29 04:06:51;;;;;;;199.63;7.18;;;8.80;99.90;;;;;;5050416;28;20437;-65
2022/09/29 04:09:16;;;;;;;203.35;7.97;;;9.10;99.90;;;;;;5041121;28;20121;-66
2022/09/29 04:11:42;;;;;;;60.25;5.18;;;9.10;99.90;;;;;;5031250;28;20068;-65
2022/09/29 04:14:07;;;;;;;322.27;11.25;;;9.20;99.90;;;;;;5037195;28;20051;-66
2022/09/29 04:16:33;;;;;;;605.83;19.05;;;9.30;99.90;;;;;;5032571;28;20038;-66
2022/09/29 04:18:59;;;;;;;415.73;14.25;;;10.20;99.90;;;;;;5042850;28;20139;-66
2022/09/29 04:21:24;;;;;;;409.77;10.43;;;9.30;99.90;;;;;;5051393;28;20538;-66
2022/09/29 04:23:50;;;;;;;608.33;12.40;;;10.00;99.90;;;;;;5049818;28;20033;-66
2022/09/29 04:26:16;;;;;;;327.90;7.75;;;9.50;99.90;;;;;;5049849;28;20036;-66
2022/09/29 04:28:41;;;;;;;192.55;5.68;;;9.70;99.90;;;;;;5049468;28;20041;-65
2022/09/29 04:31:07;;;;;;;351.92;10.82;;;9.70;99.90;;;;;;5045151;28;20070;-66
2022/09/29 04:33:33;;;;;;;95.10;4.45;;;9.70;99.90;;;;;;5048379;28;21436;-66
2022/09/29 04:35:59;;;;;;;252.00;6.47;;;9.70;99.90;;;;;;5051347;28;20455;-65
2022/09/29 04:38:25;;;;;;;387.77;8.93;;;9.70;99.90;;;;;;5049777;28;20140;-65
2022/09/29 04:40:51;;;;;;;353.02;9.57;;;8.80;99.90;;;;;;5049646;28;20040;-65
2022/09/29 04:43:17;;;;;;;300.55;8.25;;;8.90;99.90;;;;;;5050387;28;20542;-66
2022/09/29 04:45:42;;;;;;;526.25;14.30;;;9.30;99.90;;;;;;5034547;28;20048;-66
2022/09/29 04:48:08;;;;;;;322.05;9.15;;;9.70;99.90;;;;;;5040270;28;20074;-66
2022/09/29 04:50:34;;;;;;;398.13;10.18;;;8.80;99.90;;;;;;5049783;28;20059;-65
2022/09/29 04:52:59;;;;;;;191.80;5.65;;;9.60;99.90;;;;;;5051178;28;20080;-66
2022/09/29 04:55:25;;;;;;;702.95;16.33;;;9.50;99.90;;;;;;5050414;28;20394;-65
2022/09/29 04:57:50;;;;;;;852.13;23.15;;;9.10;99.90;;;;;;5036740;28;20045;-65
2022/09/29 05:00:16;;;;;;;714.00;16.98;;;8.70;99.90;;;;;;5018042;28;20155;-66
2022/09/29 05:02:42;;;;;;;563.85;14.70;;;9.50;99.90;;;;;;5042604;28;21313;-65
2022/09/29 05:05:09;;;;;;;375.17;9.55;;;9.50;99.90;;;;;;5042393;28;20373;-66
2022/09/29 05:07:35;;;;;;;319.10;6.90;;;9.40;99.90;;;;;;5042884;28;20556;-65
2022/09/29 05:10:02;;;;;;;319.35;8.68;;;9.10;99.90;;;;;;5041998;28;20053;-66
2022/09/29 05:12:27;;;;;;;343.70;9.35;;;9.50;99.90;;;;;;5042448;28;20127;-66
2022/09/29 05:14:53;;;;;;;411.35;10.55;;;8.80;99.90;;;;;;5042601;28;20131;-66
2022/09/29 05:17:18;;;;;;;583.00;11.93;;;8.70;99.90;;;;;;5048609;28;20048;-66
2022/09/29 05:19:44;;;;;;;530.00;11.50;;;8.80;99.90;;;;;;5049797;28;20470;-66
2022/09/29 05:22:09;;;;;;;476.48;10.55;;;8.70;99.90;;;;;;5044602;28;20037;-66
2022/09/29 05:24:35;;;;;;;182.18;5.35;;;9.10;99.90;;;;;;5041431;28;20103;-66
2022/09/29 05:27:01;;;;;;;294.40;7.47;;;9.70;99.90;;;;;;5042366;28;20492;-66
2022/09/29 05:29:26;;;;;;;257.48;8.68;;;9.60;99.90;;;;;;5041727;28;20730;-65
2022/09/29 05:31:52;;;;;;;240.63;6.55;;;9.30;99.90;;;;;;5042810;28;20544;-66
2022/09/29 05:34:18;;;;;;;503.63;13.25;;;9.60;99.90;;;;;;5042432;28;20033;-66
2022/09/29 05:36:44;;;;;;;492.08;13.48;;;8.80;99.90;;;;;;5052308;28;20051;-66
2022/09/29 05:39:10;;;;;;;570.70;15.77;;;9.40;99.90;;;;;;5047369;28;20029;-66
2022/09/29 05:41:35;;;;;;;387.42;10.88;;;9.90;99.90;;;;;;5048242;28;20040;-66
2022/09/29 05:44:02;;;;;;;200.07;6.20;;;9.30;99.90;;;;;;5047108;28;20269;-66
2022/09/29 05:46:27;;;;;;;244.90;7.88;;;9.30;99.90;;;;;;5044619;28;20036;-67
2022/09/29 05:48:53;;;;;;;93.05;4.15;;;9.60;99.90;;;;;;5047112;28;20409;-66
2022/09/29 05:51:21;;;;;;;176.18;5.85;;;9.00;99.90;;;;;;5039759;28;20047;-66
2022/09/29 05:53:47;;;;;;;288.80;10.43;;;9.50;99.90;;;;;;5051351;28;20037;-66
2022/09/29 05:56:15;;;;;;;374.83;10.02;;;8.60;99.90;;;;;;5045052;28;20402;-66
2022/09/29 05:58:41;;;;;;;340.02;7.72;;;8.60;99.90;;;;;;5043964;28;20033;-66
2022/09/29 06:01:09;;;;;;;368.85;11.73;;;9.50;99.90;;;;;;5039810;28;20045;-64
2022/09/29 06:03:35;;;;;;;137.70;5.15;;;9.00;99.90;;;;;;5045951;28;20034;-66
2022/09/29 06:06:09;;;;;;;141.63;4.50;;;9.50;99.90;;;;;;5036015;28;20410;-66
2022/09/29 06:08:36;;;;;;;120.22;4.57;;;8.60;99.90;;;;;;5037242;28;20056;-66
2022/09/29 06:11:07;;;;;;;96.32;3.70;;;9.10;99.90;;;;;;5041133;28;20056;-66
2022/09/29 06:13:36;;;;;;;242.77;7.03;;;9.50;99.90;;;;;;5043813;28;20052;-66
2022/09/29 06:16:01;;;;;;;200.30;6.22;;;9.30;99.90;;;;;;5049114;28;20067;-66
2022/09/29 06:18:27;;;;;;;174.73;5.45;;;8.50;99.90;;;;;;5046136;28;20503;-65
2022/09/29 06:20:53;;;;;;;225.48;7.63;;;8.60;99.90;;;;;;5040595;28;20127;-66
2022/09/29 06:23:18;;;;;;;132.15;5.57;;;8.90;99.90;;;;;;5037381;28;20041;-65
2022/09/29 06:25:44;;;;;;;87.43;3.55;;;8.40;99.90;;;;;;5031973;28;20033;-66
2022/09/29 06:28:09;;;;;;;104.43;3.80;;;8.50;99.90;;;;;;5024937;28;20168;-65
2022/09/29 06:30:35;;;;;;;145.18;4.65;;;8.90;99.90;;;;;;5043602;28;20091;-65
2022/09/29 06:33:01;;;;;;;63.85;3.53;;;8.60;99.90;;;;;;5045998;28;20068;-65
2022/09/29 06:38:10;;;;;;;107.07;5.32;;;8.60;99.90;;;;;;5039384;28;20083;-66
2022/09/29 06:40:36;;;;;;;57.83;3.38;;;8.60;99.90;;;;;;5040120;28;20045;-65
2022/09/29 06:43:01;;;;;;;62.00;3.20;;;9.50;99.90;;;;;;5040680;28;20045;-66
2022/09/29 06:45:27;;;;;;;145.45;5.03;;;8.70;99.90;;;;;;5042184;28;20033;-66
2022/09/29 06:47:58;;;;;;;89.35;4.40;;;8.70;99.90;;;;;;5040712;28;20041;-65
2022/09/29 06:50:24;;;;;;;68.20;3.88;;;9.70;99.90;;;;;;5041271;28;20111;-65
2022/09/29 06:52:49;;;;;;;33.13;3.45;;;9.80;99.90;;;;;;5033846;28;20048;-66
2022/09/29 06:55:15;;;;;;;23.85;3.53;;;9.90;99.90;;;;;;5051564;28;20131;-66
2022/09/29 06:57:40;;;;;;;38.70;3.72;;;9.20;99.90;;;;;;5040496;28;20041;-65
2022/09/29 07:00:07;;;;;;;14.40;3.78;;;10.20;99.90;;;;;;5045539;28;20498;-66
2022/09/29 07:02:32;;;;;;;16.25;3.63;;;9.90;99.90;;;;;;5040427;28;20494;-66
2022/09/29 07:04:58;;;;;;;16.60;3.53;;;9.60;99.90;;;;;;5044445;28;20056;-66
2022/09/29 07:07:23;;;;;;;15.75;3.67;;;9.70;99.90;;;;;;5043596;28;20052;-65
2022/09/29 07:09:51;;;;;;;9.65;4.22;;;10.10;99.90;;;;;;5040089;28;20055;-66
2022/09/29 07:12:17;;;;;;;5.07;4.15;;;13.00;99.90;;;;;;5050203;28;20367;-66
2022/09/29 07:14:43;;;;;;;5.15;4.30;;;10.70;99.90;;;;;;5047357;28;20080;-66
2022/09/29 07:17:08;;;;;;;6.35;4.85;;;11.20;99.90;;;;;;5047523;28;20075;-66
2022/09/29 07:19:34;;;;;;;5.35;4.70;;;10.50;99.90;;;;;;5041803;28;20087;-66
2022/09/29 07:21:59;;;;;;;9.93;6.18;;;10.40;99.90;;;;;;5050785;28;20075;-65
2022/09/29 07:24:25;;;;;;;8.27;6.72;;;10.50;99.90;;;;;;5041798;28;20041;-66
2022/09/29 07:26:51;;;;;;;9.85;6.53;;;10.90;99.90;;;;;;5038238;28;20063;-66
2022/09/29 07:29:17;;;;;;;9.57;6.53;;;11.60;99.90;;;;;;5052226;28;20410;-65
2022/09/29 07:31:44;;;;;;;12.40;8.05;;;11.10;99.90;;;;;;5046551;28;20033;-66
2022/09/29 07:34:10;;;;;;;10.63;7.63;;;12.10;99.90;;;;;;5037653;28;20146;-66
2022/09/29 07:36:37;;;;;;;12.45;8.60;;;12.20;99.90;;;;;;5034201;28;20120;-66
2022/09/29 07:39:03;;;;;;;12.88;8.25;;;11.70;99.90;;;;;;5038632;28;20076;-66
2022/09/29 07:41:29;;;;;;;11.63;8.20;;;12.20;99.90;;;;;;5038011;28;20068;-66
2022/09/29 07:43:54;;;;;;;12.30;8.55;;;12.80;99.90;;;;;;5038949;28;20048;-66
2022/09/29 07:46:20;;;;;;;15.38;9.20;;;12.10;99.90;;;;;;5038770;28;20040;-66
2022/09/29 07:48:46;;;;;;;13.32;9.63;;;13.30;99.90;;;;;;5042591;28;20569;-66
2022/09/29 07:51:17;;;;;;;11.93;9.27;;;13.60;99.90;;;;;;5043500;28;20033;-66
2022/09/29 07:53:43;;;;;;;21.48;10.82;;;12.90;99.90;;;;;;5038712;28;20083;-66
2022/09/29 07:56:18;;;;;;;15.05;9.55;;;13.50;99.90;;;;;;5045899;28;20068;-66
2022/09/29 07:58:46;;;;;;;13.80;10.27;;;14.10;99.90;;;;;;5042619;28;20418;-66
2022/09/29 08:01:14;;;;;;;17.30;9.30;;;15.30;99.90;;;;;;5037198;28;20087;-66
2022/09/29 08:03:47;;;;;;;12.15;9.35;;;15.60;99.90;;;;;;5039889;28;20039;-66
2022/09/29 08:06:13;;;;;;;11.45;8.55;;;16.50;99.90;;;;;;5042345;28;20186;-66
2022/09/29 08:08:40;;;;;;;11.65;8.23;;;15.90;99.90;;;;;;5049288;28;20119;-66
2022/09/29 08:11:11;;;;;;;14.48;6.90;;;16.80;99.90;;;;;;5032120;28;20053;-66
2022/09/29 08:13:37;;;;;;;8.75;6.88;;;18.10;99.90;;;;;;5045354;28;20078;-66
2022/09/29 08:16:05;;;;;;;11.70;6.75;;;16.90;99.90;;;;;;5048573;28;20051;-66
2022/09/29 08:18:33;;;;;;;10.90;6.32;;;19.00;99.90;;;;;;5038544;28;20378;-66
2022/09/29 08:20:59;;;;;;;12.23;5.57;;;18.10;99.90;;;;;;5045311;28;20037;-67
2022/09/29 08:23:24;;;;;;;7.30;5.07;;;17.70;99.90;;;;;;5037776;28;20391;-67
2022/09/29 08:26:02;;;;;;;7.32;4.55;;;18.40;99.90;;;;;;5037882;28;20395;-67
2022/09/29 08:28:32;;;;;;;7.95;4.30;;;19.60;99.90;;;;;;5048176;28;20419;-67
2022/09/29 08:31:06;;;;;;;4.97;3.70;;;19.90;99.90;;;;;;5041409;28;20095;-66
2022/09/29 08:33:33;;;;;;;5.85;3.63;;;19.70;99.90;;;;;;5044479;28;20132;-66
2022/09/29 08:35:59;;;;;;;5.07;3.47;;;19.50;99.90;;;;;;5044220;28;20079;-66
2022/09/29 08:38:26;;;;;;;8.90;4.15;;;20.40;99.90;;;;;;5043246;28;20045;-67
2022/09/29 08:40:54;;;;;;;6.47;3.10;;;20.30;99.90;;;;;;5041813;28;20107;-66
2022/09/29 08:43:33;;;;;;;5.88;3.10;;;21.00;99.90;;;;;;5038658;28;20059;-67
2022/09/29 08:46:08;;;;;;;4.65;2.85;;;20.80;99.90;;;;;;5036372;28;20092;-67
2022/09/29 08:48:44;;;;;;;4.05;2.90;;;19.90;99.90;;;;;;5033403;28;20049;-67
2022/09/29 08:51:35;;;;;;;5.80;2.75;;;19.90;99.90;;;;;;5047600;28;20033;-67
2022/09/29 08:54:12;;;;;;;5.93;2.30;;;20.40;99.90;;;;;;5050686;28;20406;-66
2022/09/29 08:56:38;;;;;;;4.95;2.45;;;19.70;99.90;;;;;;5043328;28;20112;-66
2022/09/29 08:59:03;;;;;;;2.17;1.95;;;20.10;99.90;;;;;;5037040;28;20090;-66
2022/09/29 09:02:24;;;;;;;5.97;2.85;;;20.10;99.90;;;;;;5036753;28;20044;-67
2022/09/29 09:05:11;;;;;;;6.28;3.22;;;20.30;99.90;;;;;;4966052;28;20078;-66
2022/09/29 09:07:38;;;;;;;;;;;19.90;99.90;;;;;;5045791;28;20044;-67
2022/09/29 09:10:33;;;;;;;4.28;3.25;;;19.30;99.90;;;;;;5040665;28;20361;-66
2022/09/29 09:13:17;;;;;;;6.72;2.88;;;20.60;99.90;;;;;;5029889;28;20136;-66
2022/09/29 09:16:16;;;;;;;4.07;2.60;;;20.40;99.90;;;;;;5039577;28;20053;-66
2022/09/29 09:18:51;;;;;;;4.47;2.88;;;19.30;99.90;;;;;;5019721;28;20511;-66
2022/09/29 09:21:41;;;;;;;3.95;3.20;;;19.20;99.90;;;;;;5046759;28;20047;-66
2022/09/29 09:24:14;;;;;;;4.68;2.67;;;19.10;99.90;;;;;;5047737;28;20044;-66
2022/09/29 09:26:45;;;;;;;4.97;2.90;;;19.90;99.90;;;;;;5037008;28;20037;-66
2022/09/29 09:29:34;;;;;;;2.70;2.13;;;18.70;99.90;;;;;;5030796;28;20049;-66
2022/09/29 09:32:06;;;;;;;3.55;2.00;;;19.70;99.90;;;;;;5039215;28;20040;-66
2022/09/29 09:34:41;;;;;;;5.45;2.10;;;19.40;99.90;;;;;;5035593;28;20042;-66
2022/09/29 09:37:13;;;;;;;4.75;2.38;;;18.90;99.90;;;;;;5041772;28;20037;-66
2022/09/29 09:39:47;;;;;;;4.80;2.10;;;18.70;99.90;;;;;;5042894;28;20041;-66
2022/09/29 09:42:17;;;;;;;4.40;3.15;;;19.00;99.90;;;;;;5042691;28;20091;-65
2022/09/29 09:44:55;;;;;;;17.25;4.07;;;19.20;99.90;;;;;;5039004;28;20486;-66
2022/09/29 09:47:32;;;;;;;7.47;3.65;;;18.50;99.90;;;;;;5048742;28;20047;-66
2022/09/29 09:50:14;;;;;;;5.35;3.25;;;19.30;99.90;;;;;;5039494;28;20120;-66
2022/09/29 09:52:50;;;;;;;2.72;2.35;;;19.30;99.90;;;;;;5043469;28;20053;-66
2022/09/29 09:55:17;;;;;;;;;;;19.40;99.90;;;;;;5039252;28;20057;-65
2022/09/29 09:57:48;;;;;;;2.25;1.50;;;18.70;99.90;;;;;;5051835;28;20501;-65
2022/09/29 10:00:24;;;;;;;4.38;1.90;;;18.60;99.90;;;;;;5048147;28;20040;-65
2022/09/29 10:02:55;;;;;;;2.08;1.73;;;19.30;99.90;;;;;;5045446;28;20044;-65
2022/09/29 10:05:33;;;;;;;6.55;1.83;;;19.30;99.90;;;;;;5044949;28;20033;-66
2022/09/29 10:07:59;;;;;;;3.30;2.00;;;19.30;99.90;;;;;;5034366;28;20099;-66
2022/09/29 10:10:28;;;;;;;1.50;1.30;;;19.20;99.90;;;;;;5037123;28;20452;-65
2022/09/29 10:13:00;;;;;;;5.45;1.90;;;19.30;99.90;;;;;;5049091;28;20109;-66
2022/09/29 10:16:02;;;;;;;3.78;2.00;;;19.20;99.90;;;;;;5046347;28;20099;-65
2022/09/29 10:18:47;;;;;;;5.57;2.30;;;19.20;99.90;;;;;;5042551;28;20090;-65
2022/09/29 10:21:22;;;;;;;3.40;1.55;;;18.60;99.90;;;;;;5033177;28;20053;-65
2022/09/29 10:23:55;;;;;;;3.00;1.38;;;18.50;99.90;;;;;;5041489;28;20037;-65
2022/09/29 10:26:25;;;;;;;3.33;2.10;;;18.90;99.90;;;;;;5044681;28;20041;-65
2022/09/29 10:28:57;;;;;;;5.90;2.17;;;19.20;99.90;;;;;;5041908;28;20396;-65
2022/09/29 10:31:28;;;;;;;3.00;1.42;;;19.20;99.90;;;;;;5039562;28;20025;-65
2022/09/29 10:34:15;;;;;;;1.27;1.10;;;18.90;99.90;;;;;;5046734;28;20445;-65
2022/09/29 10:36:57;;;;;;;2.42;1.35;;;19.30;99.90;;;;;;5047856;28;20040;-65
2022/09/29 10:39:46;;;;;;;2.13;1.25;;;18.70;99.90;;;;;;5043260;28;20025;-65
2022/09/29 10:42:19;;;;;;;7.78;1.63;;;18.70;99.90;;;;;;5042855;28;20033;-65
2022/09/29 10:44:53;;;;;;;2.10;1.35;;;18.70;99.90;;;;;;5042197;28;20037;-65
2022/09/29 10:47:20;;;;;;;3.30;1.50;;;18.70;99.90;;;;;;5043539;28;20083;-65
2022/09/29 10:49:46;;;;;;;1.65;1.20;;;18.60;99.90;;;;;;5041229;28;20037;-65
2022/09/29 10:52:22;;;;;;;2.90;1.50;;;18.90;99.90;;;;;;5047045;28;20044;-65
2022/09/29 10:54:58;;;;;;;1.38;1.20;;;19.10;99.90;;;;;;5036322;28;20085;-65
2022/09/29 10:57:29;;;;;;;3.50;1.73;;;19.30;99.90;;;;;;5043211;28;20049;-65
2022/09/29 10:59:56;;;;;;;2.38;1.48;;;19.50;99.90;;;;;;5044320;28;20036;-65
2022/09/29 11:02:36;;;;;;;3.85;1.20;;;19.70;99.90;;;;;;5049940;28;20037;-65
2022/09/29 11:05:19;;;;;;;1.10;1.00;;;19.70;99.90;;;;;;5051239;28;20152;-66
2022/09/29 11:07:49;;;;;;;2.45;1.20;;;20.00;99.90;;;;;;5046024;28;20487;-65
2022/09/29 11:10:34;;;;;;;3.33;1.20;;;19.40;99.90;;;;;;5031200;28;20063;-65
2022/09/29 11:13:23;;;;;;;4.05;0.80;;;19.10;1.00;;;;;;5044109;28;20063;-65
2022/09/29 11:15:49;;;;;;;1.52;0.90;;;19.00;99.90;;;;;;5044172;28;20059;-65
2022/09/29 11:18:20;;;;;;;2.58;0.90;;;19.30;1.00;;;;;;5046558;28;20044;-65
2022/09/29 11:20:55;;;;;;;3.70;0.80;;;18.80;99.90;;;;;;5048804;28;20048;-65
2022/09/29 11:23:30;;;;;;;1.70;0.90;;;18.80;1.00;;;;;;5039987;28;20041;-66
2022/09/29 11:26:12;;;;;;;2.43;0.90;;;19.10;99.90;;;;;;5040375;28;20037;-66
2022/09/29 11:28:59;;;;;;;1.65;0.80;;;18.60;99.90;;;;;;5047523;28;20040;-66
2022/09/29 11:31:50;;;;;;;3.35;0.80;;;18.80;99.90;;;;;;5051282;28;20123;-66
2022/09/29 11:34:46;;;;;;;2.65;0.80;;;18.90;99.90;;;;;;5035117;28;20120;-66
2022/09/29 11:37:27;;;;;;;1.85;0.82;;;18.90;99.90;;;;;;5036252;28;20128;-66
2022/09/29 11:40:28;;;;;;;1.85;0.90;;;18.70;99.90;;;;;;5040887;28;20052;-66
2022/09/29 11:43:19;;;;;;;1.80;0.80;;;19.00;1.00;;;;;;5045883;28;20033;-66
2022/09/29 11:46:03;;;;;;;2.90;1.02;;;18.60;24.90;;;;;;5042128;28;20479;-66
2022/09/29 11:48:31;;;;;;;3.00;0.80;;;18.80;99.90;;;;;;5042415;28;20142;-66
2022/09/29 11:51:18;;;;;;;6.20;0.80;;;18.60;1.00;;;;;;5034614;28;20140;-66
2022/09/29 11:54:02;;;;;;;;;;;19.00;99.90;;;;;;5032300;28;20124;-66
2022/09/29 11:56:50;;;;;;;1.65;0.73;;;18.90;99.90;;;;;;5045383;28;19967;-66
2022/09/29 11:59:37;;;;;;;4.25;1.15;;;18.60;1.00;;;;;;5046586;28;20096;-66
2022/09/29 12:02:27;;;;;;;3.88;0.82;;;18.70;94.70;;;;;;5035346;28;20037;-65
2022/09/29 12:05:13;;;;;;;3.70;0.88;;;18.70;99.90;;;;;;5039010;28;20045;-66
2022/09/29 12:07:58;;;;;;;0.83;0.57;;;18.50;99.90;;;;;;5045852;28;20061;-66
2022/09/29 12:10:50;;;;;;;1.85;0.70;;;18.70;7.00;;;;;;5042528;28;20076;-67
2022/09/29 12:13:31;;;;;;;4.45;1.10;;;18.50;80.10;;;;;;5036432;28;20037;-67
2022/09/29 12:16:06;;;;;;;3.38;1.10;;;18.60;90.00;;;;;;5043369;28;20506;-67
2022/09/29 12:18:50;;;;;;;4.28;0.75;;;18.70;1.00;;;;;;5041960;28;20418;-67
2022/09/29 12:21:41;;;;;;;1.73;0.43;;;18.80;1.00;;;;;;5047694;28;20032;-66
2022/09/29 12:24:16;;;;;;;2.42;0.90;;;18.80;99.90;;;;;;5030959;28;20546;-66
2022/09/29 12:26:44;;;;;;;5.18;0.75;;;18.70;45.60;;;;;;5035953;28;20052;-66
2022/09/29 12:29:21;;;;;;;1.65;0.50;;;18.70;1.00;;;;;;5040883;28;20444;-66
2022/09/29 12:31:51;;;;;;;1.90;0.93;;;18.50;99.90;;;;;;5034447;28;20040;-66
2022/09/29 12:34:24;;;;;;;3.13;0.95;;;18.40;99.90;;;;;;5035532;28;20553;-66
2022/09/29 12:37:01;;;;;;;2.92;0.45;;;18.40;99.90;;;;;;5044612;28;20080;-65
2022/09/29 12:39:45;;;;;;;2.35;0.57;;;18.30;99.90;;;;;;5044252;28;20495;-67
2022/09/29 12:42:39;;;;;;;2.40;0.90;;;18.30;99.90;;;;;;5040482;28;20041;-66
2022/09/29 12:45:32;;;;;;;3.25;1.08;;;18.50;30.10;;;;;;5038013;28;20041;-66
2022/09/29 12:48:36;;;;;;;2.83;0.90;;;18.50;88.20;;;;;;5033953;28;20074;-66
2022/09/29 12:51:10;;;;;;;0.50;0.50;;;18.50;93.40;;;;;;5045091;28;20182;-66
2022/09/29 12:53:57;;;;;;;0.63;0.45;;;18.30;1.00;;;;;;5040759;28;20541;-67
2022/09/29 12:56:31;;;;;;;0.95;0.82;;;18.40;1.00;;;;;;5033766;28;20526;-66
2022/09/29 12:59:16;;;;;;;0.75;0.60;;;18.30;6.20;;;;;;5045401;28;20029;-66
2022/09/29 13:01:42;;;;;;;3.17;0.93;;;18.40;1.00;;;;;;5017436;28;20046;-67
2022/09/29 13:04:49;;;;;;;1.25;0.60;;;18.60;1.00;;;;;;5044553;28;20044;-67
2022/09/29 13:07:45;;;;;;;2.10;0.68;;;18.70;16.00;;;;;;5042278;28;20038;-66
2022/09/29 13:10:24;;;;;;;2.45;0.80;;;18.70;50.30;;;;;;5041353;28;20084;-66